Paynesville, MN (56362)

2:09 PM CDT on September 02, 2015 (GMT -0500)
Paynesville | | Change Station
CLOSE
Current Station
Airport
Location: Paynesville,
Elevation: 1181 ft
Nearby Weather Stations

Elev 1181 ft 45.37 °N, 94.74 °W | Updated 15 minutes ago

Overcast
Overcast
77 °F
Feels Like 77 °F
N
8
Wind Variable Wind from NNE

Today
High -- | Low -- °F
--% Chance of Precip.
Yesterday
High -- | Low -- °F
Precip. -- in
6:41 AM 7:54 PM
Waning Gibbous, 78% visible
Pressure 29.90 in
Visibility 10.0 miles
Clouds Overcast 1400 ft
Dew Point 68 °F
Humidity 75%
Rainfall 0.03 in
Snow Depth Not available.
UV 2 out of 12
Pollen 10.00 out of 12
Air Quality Not available.
Flu Activity Not available.
METAR KPEX 021854Z AUTO 02007KT 10SM OVC014 25/20 A2990 RMK AO2 T02500203
Pressure 29.90 in
Visibility 10.0 miles
Clouds Overcast 1400 ft
Dew Point 68 °F
Humidity 75%
Rainfall 0.03 in
Snow Depth Not available.
UV 2 out of 12
Pollen 10.00 out of 12
Air Quality Not available.
Flu Activity Not available.
METAR KPEX 021854Z AUTO 02007KT 10SM OVC014 25/20 A2990 RMK AO2 T02500203

10-Day Weather Forecast

×

Almanac

Astronomy

Sep. 02, 2015 Rise Set
Actual Time
Civil Twilight
Nautical Twilight
Astronomical Twilight
Moon
Length of Visible Light
Length of Day
Tomorrow will be .
, % of the Moon is Illuminated

Today's Extremes

State Highs State Lows

Community

WunderPhotos

Upload Photos

1,851,799 photos uploaded!

WunderBlogs® & News

Nearby

Air Quality

  Air Quality AQ Index Pollutant
Not available.

Snow Depth

Station Depth Elevation

Earthquake Activity

City Distance Mag. Time & Date
Minimum magnitude displayed is 2.5.

Coastal Water Temperatures

Place Temperature

Stations

Nearby Weather Stations

Station Location Temp. Windchill Dew Point Humidity Wind Precip. Elev Updated Type